Rosendale, Missouri
Current Conditions -  °F | °C
As of 3:53 AM on Monday 26 Jan 2015 (Local Time) from KSTJ Reporting Station
Clear Clear  
Wind Chill: 18°   Ceiling: Unl
Heat Index: 25°   Visibility: 7mi
Dew Point: 23°   Wind: 6mph
Humidity: 92%   Direction: 160°SSE
Pressure: 30.06"   Gusts: NA
Location:  40.04°N, 94.82°W
Report Text: KSTJ 260953Z AUTO 16005KT 7SM CLR M04/M05 A3006 RMK AO2 SLP185 I1000 T10391050 $
Loading
Personal Weather Stations






























Interactive Weather Map New forecast layout! Learn more

10-Day Weather Forecast

Advertisements
Track Severe Weather on mobile